sensor_id;sensor_type;location;lat;lon;timestamp;temperature;humidity
22416;DHT22;12204;50.600;4.608;2024-01-25T00:00:11;21.80;68.10
22416;DHT22;12204;50.600;4.608;2024-01-25T00:05:17;21.70;68.00
22416;DHT22;12204;50.600;4.608;2024-01-25T00:10:21;21.70;68.00
22416;DHT22;12204;50.600;4.608;2024-01-25T00:15:25;21.70;68.60
22416;DHT22;12204;50.600;4.608;2024-01-25T00:20:30;21.70;68.60
22416;DHT22;12204;50.600;4.608;2024-01-25T00:25:33;21.60;68.40
22416;DHT22;12204;50.600;4.608;2024-01-25T00:30:37;21.60;68.40
22416;DHT22;12204;50.600;4.608;2024-01-25T00:35:42;21.60;68.50
22416;DHT22;12204;50.600;4.608;2024-01-25T00:40:47;21.60;68.50
22416;DHT22;12204;50.600;4.608;2024-01-25T00:45:52;21.60;68.50
22416;DHT22;12204;50.600;4.608;2024-01-25T00:50:58;21.60;68.60
22416;DHT22;12204;50.600;4.608;2024-01-25T00:56:03;21.60;68.60
22416;DHT22;12204;50.600;4.608;2024-01-25T01:01:08;21.50;69.00
22416;DHT22;12204;50.600;4.608;2024-01-25T01:06:14;21.50;68.90
22416;DHT22;12204;50.600;4.608;2024-01-25T01:11:19;21.50;68.90
22416;DHT22;12204;50.600;4.608;2024-01-25T01:16:22;21.50;68.90
22416;DHT22;12204;50.600;4.608;2024-01-25T01:21:27;21.50;69.00
22416;DHT22;12204;50.600;4.608;2024-01-25T01:26:31;21.50;69.70
22416;DHT22;12204;50.600;4.608;2024-01-25T01:31:34;21.50;69.50
22416;DHT22;12204;50.600;4.608;2024-01-25T01:36:39;21.40;69.70
22416;DHT22;12204;50.600;4.608;2024-01-25T01:41:46;21.40;70.00
22416;DHT22;12204;50.600;4.608;2024-01-25T01:46:51;21.40;70.70
22416;DHT22;12204;50.600;4.608;2024-01-25T01:51:58;21.40;70.70
22416;DHT22;12204;50.600;4.608;2024-01-25T01:57:02;21.40;70.80
22416;DHT22;12204;50.600;4.608;2024-01-25T02:02:06;21.40;70.90
22416;DHT22;12204;50.600;4.608;2024-01-25T02:07:11;21.40;71.00
22416;DHT22;12204;50.600;4.608;2024-01-25T02:12:16;21.40;71.00
22416;DHT22;12204;50.600;4.608;2024-01-25T02:17:20;21.40;70.80
22416;DHT22;12204;50.600;4.608;2024-01-25T02:22:25;21.40;70.70
22416;DHT22;12204;50.600;4.608;2024-01-25T02:27:28;21.40;71.20
22416;DHT22;12204;50.600;4.608;2024-01-25T02:32:32;21.40;71.40
22416;DHT22;12204;50.600;4.608;2024-01-25T02:37:37;21.30;71.70
22416;DHT22;12204;50.600;4.608;2024-01-25T02:42:40;21.30;71.90
22416;DHT22;12204;50.600;4.608;2024-01-25T02:47:44;21.30;71.70
22416;DHT22;12204;50.600;4.608;2024-01-25T02:52:49;21.30;71.40
22416;DHT22;12204;50.600;4.608;2024-01-25T02:57:54;21.30;71.30
22416;DHT22;12204;50.600;4.608;2024-01-25T03:02:57;21.30;71.60
22416;DHT22;12204;50.600;4.608;2024-01-25T03:08:02;21.40;71.00
22416;DHT22;12204;50.600;4.608;2024-01-25T03:13:06;21.40;70.30
22416;DHT22;12204;50.600;4.608;2024-01-25T03:18:10;21.50;69.90
22416;DHT22;12204;50.600;4.608;2024-01-25T03:23:15;21.50;69.50
22416;DHT22;12204;50.600;4.608;2024-01-25T03:28:18;21.60;69.30
22416;DHT22;12204;50.600;4.608;2024-01-25T03:33:22;21.60;69.00
22416;DHT22;12204;50.600;4.608;2024-01-25T03:38:28;21.60;68.90
22416;DHT22;12204;50.600;4.608;2024-01-25T03:43:32;21.70;68.90
22416;DHT22;12204;50.600;4.608;2024-01-25T03:48:44;21.70;68.80
22416;DHT22;12204;50.600;4.608;2024-01-25T03:53:49;21.70;68.80
22416;DHT22;12204;50.600;4.608;2024-01-25T03:58:54;21.70;68.80
22416;DHT22;12204;50.600;4.608;2024-01-25T04:03:58;21.70;68.60
22416;DHT22;12204;50.600;4.608;2024-01-25T04:09:03;21.70;68.50
22416;DHT22;12204;50.600;4.608;2024-01-25T04:14:07;21.70;69.30
22416;DHT22;12204;50.600;4.608;2024-01-25T04:19:10;21.70;69.30
22416;DHT22;12204;50.600;4.608;2024-01-25T04:24:16;21.70;68.60
22416;DHT22;12204;50.600;4.608;2024-01-25T04:29:20;21.70;68.60
22416;DHT22;12204;50.600;4.608;2024-01-25T04:34:23;21.60;68.50
22416;DHT22;12204;50.600;4.608;2024-01-25T04:39:28;21.60;68.60
22416;DHT22;12204;50.600;4.608;2024-01-25T04:44:32;21.60;68.80
22416;DHT22;12204;50.600;4.608;2024-01-25T04:49:35;21.60;68.80
22416;DHT22;12204;50.600;4.608;2024-01-25T04:54:40;21.60;68.70
22416;DHT22;12204;50.600;4.608;2024-01-25T04:59:44;21.50;68.60
22416;DHT22;12204;50.600;4.608;2024-01-25T05:04:47;21.50;68.20
22416;DHT22;12204;50.600;4.608;2024-01-25T05:09:53;21.50;68.70
22416;DHT22;12204;50.600;4.608;2024-01-25T05:14:56;21.50;68.10
22416;DHT22;12204;50.600;4.608;2024-01-25T05:20:01;21.50;68.60
22416;DHT22;12204;50.600;4.608;2024-01-25T05:25:07;21.50;69.60
22416;DHT22;12204;50.600;4.608;2024-01-25T05:30:12;21.40;69.00
22416;DHT22;12204;50.600;4.608;2024-01-25T05:35:16;21.40;69.10
22416;DHT22;12204;50.600;4.608;2024-01-25T05:40:22;21.40;69.30
22416;DHT22;12204;50.600;4.608;2024-01-25T05:45:25;21.40;69.30
22416;DHT22;12204;50.600;4.608;2024-01-25T05:50:29;21.30;69.40
22416;DHT22;12204;50.600;4.608;2024-01-25T05:55:33;21.30;69.40
22416;DHT22;12204;50.600;4.608;2024-01-25T06:00:37;21.30;69.50
22416;DHT22;12204;50.600;4.608;2024-01-25T06:05:41;21.30;69.60
22416;DHT22;12204;50.600;4.608;2024-01-25T06:10:47;21.30;69.70
22416;DHT22;12204;50.600;4.608;2024-01-25T06:15:51;21.20;69.70
22416;DHT22;12204;50.600;4.608;2024-01-25T06:20:55;21.20;70.00
22416;DHT22;12204;50.600;4.608;2024-01-25T06:26:00;21.30;70.00
22416;DHT22;12204;50.600;4.608;2024-01-25T06:31:04;21.20;69.90
22416;DHT22;12204;50.600;4.608;2024-01-25T06:36:08;21.20;70.20
22416;DHT22;12204;50.600;4.608;2024-01-25T06:41:13;21.20;70.20
22416;DHT22;12204;50.600;4.608;2024-01-25T06:46:17;21.20;70.00
22416;DHT22;12204;50.600;4.608;2024-01-25T06:51:20;21.20;70.00
22416;DHT22;12204;50.600;4.608;2024-01-25T06:56:25;21.10;70.00
22416;DHT22;12204;50.600;4.608;2024-01-25T07:01:29;21.10;69.80
22416;DHT22;12204;50.600;4.608;2024-01-25T07:06:33;21.10;69.60
22416;DHT22;12204;50.600;4.608;2024-01-25T07:11:38;21.10;69.20
22416;DHT22;12204;50.600;4.608;2024-01-25T07:16:42;21.10;69.00
22416;DHT22;12204;50.600;4.608;2024-01-25T07:21:45;21.10;68.70
22416;DHT22;12204;50.600;4.608;2024-01-25T07:26:50;21.00;68.80
22416;DHT22;12204;50.600;4.608;2024-01-25T07:31:56;21.00;69.10
22416;DHT22;12204;50.600;4.608;2024-01-25T07:37:00;21.10;68.70
22416;DHT22;12204;50.600;4.608;2024-01-25T07:42:05;21.00;68.80
22416;DHT22;12204;50.600;4.608;2024-01-25T07:47:08;21.00;68.80
22416;DHT22;12204;50.600;4.608;2024-01-25T07:52:12;21.00;69.00
22416;DHT22;12204;50.600;4.608;2024-01-25T07:57:17;21.00;68.90
22416;DHT22;12204;50.600;4.608;2024-01-25T08:02:21;21.00;69.00
22416;DHT22;12204;50.600;4.608;2024-01-25T08:07:24;21.00;68.90
22416;DHT22;12204;50.600;4.608;2024-01-25T08:12:29;21.00;68.90
22416;DHT22;12204;50.600;4.608;2024-01-25T08:17:33;21.00;68.80
22416;DHT22;12204;50.600;4.608;2024-01-25T08:22:38;21.00;68.80
22416;DHT22;12204;50.600;4.608;2024-01-25T08:27:43;21.00;68.80
22416;DHT22;12204;50.600;4.608;2024-01-25T08:32:46;21.00;68.70
22416;DHT22;12204;50.600;4.608;2024-01-25T08:37:50;21.00;68.70
22416;DHT22;12204;50.600;4.608;2024-01-25T08:42:55;21.00;68.80
22416;DHT22;12204;50.600;4.608;2024-01-25T08:47:58;20.90;68.90
22416;DHT22;12204;50.600;4.608;2024-01-25T08:53:03;20.90;69.10
22416;DHT22;12204;50.600;4.608;2024-01-25T08:58:08;20.90;69.10
22416;DHT22;12204;50.600;4.608;2024-01-25T09:03:11;20.80;69.20
22416;DHT22;12204;50.600;4.608;2024-01-25T09:08:15;20.80;69.40
22416;DHT22;12204;50.600;4.608;2024-01-25T09:13:20;20.80;69.30
22416;DHT22;12204;50.600;4.608;2024-01-25T09:18:24;20.70;69.30
22416;DHT22;12204;50.600;4.608;2024-01-25T09:23:27;20.70;69.40
22416;DHT22;12204;50.600;4.608;2024-01-25T09:28:32;20.70;69.40
22416;DHT22;12204;50.600;4.608;2024-01-25T09:33:36;20.70;69.50
22416;DHT22;12204;50.600;4.608;2024-01-25T09:38:40;20.60;69.50
22416;DHT22;12204;50.600;4.608;2024-01-25T09:43:45;20.60;69.60
22416;DHT22;12204;50.600;4.608;2024-01-25T09:48:49;20.60;69.70
22416;DHT22;12204;50.600;4.608;2024-01-25T09:53:54;20.60;69.70
22416;DHT22;12204;50.600;4.608;2024-01-25T09:58:59;20.50;69.60
22416;DHT22;12204;50.600;4.608;2024-01-25T10:04:06;20.50;69.70
22416;DHT22;12204;50.600;4.608;2024-01-25T10:09:11;20.50;69.80
22416;DHT22;12204;50.600;4.608;2024-01-25T10:14:17;20.50;69.70
22416;DHT22;12204;50.600;4.608;2024-01-25T10:19:21;20.50;69.70
22416;DHT22;12204;50.600;4.608;2024-01-25T10:24:25;20.50;69.70
22416;DHT22;12204;50.600;4.608;2024-01-25T10:29:30;20.40;69.70
22416;DHT22;12204;50.600;4.608;2024-01-25T10:34:35;20.40;69.60
22416;DHT22;12204;50.600;4.608;2024-01-25T10:39:41;20.40;69.70
22416;DHT22;12204;50.600;4.608;2024-01-25T10:44:48;20.40;69.80
22416;DHT22;12204;50.600;4.608;2024-01-25T10:49:53;20.40;70.10
22416;DHT22;12204;50.600;4.608;2024-01-25T10:54:57;20.40;69.70
22416;DHT22;12204;50.600;4.608;2024-01-25T11:00:03;20.40;69.70
22416;DHT22;12204;50.600;4.608;2024-01-25T11:05:12;20.40;69.70
22416;DHT22;12204;50.600;4.608;2024-01-25T11:10:18;20.40;69.70
22416;DHT22;12204;50.600;4.608;2024-01-25T11:15:31;20.40;69.70
22416;DHT22;12204;50.600;4.608;2024-01-25T11:20:36;20.30;69.60
22416;DHT22;12204;50.600;4.608;2024-01-25T11:25:40;20.30;69.60
22416;DHT22;12204;50.600;4.608;2024-01-25T11:30:45;20.30;69.60
22416;DHT22;12204;50.600;4.608;2024-01-25T11:35:54;20.30;69.60
22416;DHT22;12204;50.600;4.608;2024-01-25T11:40:57;20.30;69.60
22416;DHT22;12204;50.600;4.608;2024-01-25T11:46:02;20.30;69.60
22416;DHT22;12204;50.600;4.608;2024-01-25T11:51:08;20.30;69.60
22416;DHT22;12204;50.600;4.608;2024-01-25T11:56:16;20.30;69.70
22416;DHT22;12204;50.600;4.608;2024-01-25T12:01:24;20.30;69.70
22416;DHT22;12204;50.600;4.608;2024-01-25T12:06:29;20.30;69.70
22416;DHT22;12204;50.600;4.608;2024-01-25T12:11:33;20.30;69.60
22416;DHT22;12204;50.600;4.608;2024-01-25T12:16:38;20.20;69.60
22416;DHT22;12204;50.600;4.608;2024-01-25T12:21:45;20.20;69.60
22416;DHT22;12204;50.600;4.608;2024-01-25T12:26:48;20.20;70.30
22416;DHT22;12204;50.600;4.608;2024-01-25T12:31:53;20.20;69.60
22416;DHT22;12204;50.600;4.608;2024-01-25T12:36:57;20.20;69.60
22416;DHT22;12204;50.600;4.608;2024-01-25T12:42:01;20.20;69.60
22416;DHT22;12204;50.600;4.608;2024-01-25T12:47:07;20.20;69.60
22416;DHT22;12204;50.600;4.608;2024-01-25T12:52:12;20.10;69.50
22416;DHT22;12204;50.600;4.608;2024-01-25T12:57:17;20.20;69.60
22416;DHT22;12204;50.600;4.608;2024-01-25T13:02:23;20.20;69.60
22416;DHT22;12204;50.600;4.608;2024-01-25T13:07:26;20.10;69.50
22416;DHT22;12204;50.600;4.608;2024-01-25T13:12:30;20.10;69.60
22416;DHT22;12204;50.600;4.608;2024-01-25T13:17:35;20.10;69.60
22416;DHT22;12204;50.600;4.608;2024-01-25T13:22:39;20.10;69.60
22416;DHT22;12204;50.600;4.608;2024-01-25T13:27:42;20.10;69.60
22416;DHT22;12204;50.600;4.608;2024-01-25T13:32:47;20.10;69.60
22416;DHT22;12204;50.600;4.608;2024-01-25T13:37:51;20.10;69.60
22416;DHT22;12204;50.600;4.608;2024-01-25T13:42:54;20.10;69.70
22416;DHT22;12204;50.600;4.608;2024-01-25T13:47:59;20.10;69.60
22416;DHT22;12204;50.600;4.608;2024-01-25T13:53:03;20.10;69.60
22416;DHT22;12204;50.600;4.608;2024-01-25T13:58:07;20.10;69.60
22416;DHT22;12204;50.600;4.608;2024-01-25T14:03:11;20.10;69.70
22416;DHT22;12204;50.600;4.608;2024-01-25T14:08:17;20.00;69.60
22416;DHT22;12204;50.600;4.608;2024-01-25T14:13:21;20.10;69.70
22416;DHT22;12204;50.600;4.608;2024-01-25T14:18:27;20.10;69.70
22416;DHT22;12204;50.600;4.608;2024-01-25T14:23:31;20.10;69.70
22416;DHT22;12204;50.600;4.608;2024-01-25T14:28:37;20.00;69.60
22416;DHT22;12204;50.600;4.608;2024-01-25T14:33:42;20.00;69.60
22416;DHT22;12204;50.600;4.608;2024-01-25T14:38:47;20.00;69.60
22416;DHT22;12204;50.600;4.608;2024-01-25T14:43:50;20.00;69.60
22416;DHT22;12204;50.600;4.608;2024-01-25T14:48:55;20.00;69.70
22416;DHT22;12204;50.600;4.608;2024-01-25T14:54:00;20.00;69.70
22416;DHT22;12204;50.600;4.608;2024-01-25T14:59:03;20.00;69.60
22416;DHT22;12204;50.600;4.608;2024-01-25T15:04:08;20.00;69.70
22416;DHT22;12204;50.600;4.608;2024-01-25T15:09:12;20.00;69.70
22416;DHT22;12204;50.600;4.608;2024-01-25T15:14:15;20.00;69.60
22416;DHT22;12204;50.600;4.608;2024-01-25T15:19:20;20.00;69.90
22416;DHT22;12204;50.600;4.608;2024-01-25T15:24:24;20.00;69.80
22416;DHT22;12204;50.600;4.608;2024-01-25T15:29:29;20.00;69.80
22416;DHT22;12204;50.600;4.608;2024-01-25T15:34:34;20.00;69.80
22416;DHT22;12204;50.600;4.608;2024-01-25T15:39:38;20.00;69.80
22416;DHT22;12204;50.600;4.608;2024-01-25T15:44:41;20.00;69.80
22416;DHT22;12204;50.600;4.608;2024-01-25T15:49:46;20.00;70.20
22416;DHT22;12204;50.600;4.608;2024-01-25T15:54:50;20.00;70.20
22416;DHT22;12204;50.600;4.608;2024-01-25T15:59:53;20.00;70.80
22416;DHT22;12204;50.600;4.608;2024-01-25T16:04:58;20.00;71.30
22416;DHT22;12204;50.600;4.608;2024-01-25T16:10:02;20.10;71.80
22416;DHT22;12204;50.600;4.608;2024-01-25T16:15:06;20.10;72.50
22416;DHT22;12204;50.600;4.608;2024-01-25T16:20:12;20.10;73.10
22416;DHT22;12204;50.600;4.608;2024-01-25T16:25:17;20.20;72.80
22416;DHT22;12204;50.600;4.608;2024-01-25T16:30:21;20.20;73.10
22416;DHT22;12204;50.600;4.608;2024-01-25T16:35:27;20.20;73.50
22416;DHT22;12204;50.600;4.608;2024-01-25T16:40:33;20.20;73.50
22416;DHT22;12204;50.600;4.608;2024-01-25T16:45:36;20.20;73.30
22416;DHT22;12204;50.600;4.608;2024-01-25T16:50:42;20.20;73.50
22416;DHT22;12204;50.600;4.608;2024-01-25T16:55:45;20.20;73.60
22416;DHT22;12204;50.600;4.608;2024-01-25T17:00:51;20.20;73.70
22416;DHT22;12204;50.600;4.608;2024-01-25T17:05:57;20.20;73.60
22416;DHT22;12204;50.600;4.608;2024-01-25T17:11:00;20.20;73.50
22416;DHT22;12204;50.600;4.608;2024-01-25T17:16:04;20.20;73.40
22416;DHT22;12204;50.600;4.608;2024-01-25T17:21:09;20.20;73.50
22416;DHT22;12204;50.600;4.608;2024-01-25T17:26:13;20.20;73.80
22416;DHT22;12204;50.600;4.608;2024-01-25T17:31:17;20.20;74.00
22416;DHT22;12204;50.600;4.608;2024-01-25T17:36:22;20.20;73.80
22416;DHT22;12204;50.600;4.608;2024-01-25T17:41:26;20.10;73.60
22416;DHT22;12204;50.600;4.608;2024-01-25T17:46:29;20.10;73.50
22416;DHT22;12204;50.600;4.608;2024-01-25T17:51:34;20.10;73.40
22416;DHT22;12204;50.600;4.608;2024-01-25T17:56:40;20.10;73.30
22416;DHT22;12204;50.600;4.608;2024-01-25T18:01:43;20.10;73.20
22416;DHT22;12204;50.600;4.608;2024-01-25T18:06:48;20.10;73.10
22416;DHT22;12204;50.600;4.608;2024-01-25T18:11:52;20.10;72.90
22416;DHT22;12204;50.600;4.608;2024-01-25T18:16:56;20.20;73.40
22416;DHT22;12204;50.600;4.608;2024-01-25T18:22:01;20.30;73.30
22416;DHT22;12204;50.600;4.608;2024-01-25T18:27:05;20.40;73.20
22416;DHT22;12204;50.600;4.608;2024-01-25T18:32:08;20.50;72.90
22416;DHT22;12204;50.600;4.608;2024-01-25T18:37:13;20.70;72.60
22416;DHT22;12204;50.600;4.608;2024-01-25T18:42:16;20.80;72.20
22416;DHT22;12204;50.600;4.608;2024-01-25T18:47:20;20.90;71.90
22416;DHT22;12204;50.600;4.608;2024-01-25T18:52:26;21.00;71.50
22416;DHT22;12204;50.600;4.608;2024-01-25T18:57:30;21.10;71.10
22416;DHT22;12204;50.600;4.608;2024-01-25T19:02:35;21.10;70.80
22416;DHT22;12204;50.600;4.608;2024-01-25T19:07:41;21.20;70.60
22416;DHT22;12204;50.600;4.608;2024-01-25T19:12:45;21.20;70.50
22416;DHT22;12204;50.600;4.608;2024-01-25T19:17:48;21.20;70.30
22416;DHT22;12204;50.600;4.608;2024-01-25T19:22:54;21.20;70.10
22416;DHT22;12204;50.600;4.608;2024-01-25T19:27:57;21.20;70.00
22416;DHT22;12204;50.600;4.608;2024-01-25T19:33:01;21.20;69.90
22416;DHT22;12204;50.600;4.608;2024-01-25T19:38:07;21.30;70.00
22416;DHT22;12204;50.600;4.608;2024-01-25T19:43:11;21.20;69.90
22416;DHT22;12204;50.600;4.608;2024-01-25T19:48:15;21.20;69.80
22416;DHT22;12204;50.600;4.608;2024-01-25T19:53:20;21.20;69.70
22416;DHT22;12204;50.600;4.608;2024-01-25T19:58:24;21.20;69.60
22416;DHT22;12204;50.600;4.608;2024-01-25T20:03:30;21.20;70.90
22416;DHT22;12204;50.600;4.608;2024-01-25T20:08:36;21.20;74.00
22416;DHT22;12204;50.600;4.608;2024-01-25T20:13:40;21.20;73.70
22416;DHT22;12204;50.600;4.608;2024-01-25T20:18:43;21.30;73.50
22416;DHT22;12204;50.600;4.608;2024-01-25T20:23:48;21.30;73.40
22416;DHT22;12204;50.600;4.608;2024-01-25T20:28:52;21.30;73.40
22416;DHT22;12204;50.600;4.608;2024-01-25T20:33:56;21.30;73.30
22416;DHT22;12204;50.600;4.608;2024-01-25T20:39:01;21.30;73.20
22416;DHT22;12204;50.600;4.608;2024-01-25T20:44:04;21.40;73.10
22416;DHT22;12204;50.600;4.608;2024-01-25T20:49:07;21.40;73.10
22416;DHT22;12204;50.600;4.608;2024-01-25T20:54:12;21.40;72.90
22416;DHT22;12204;50.600;4.608;2024-01-25T20:59:16;21.30;72.70
22416;DHT22;12204;50.600;4.608;2024-01-25T21:04:20;21.40;72.70
22416;DHT22;12204;50.600;4.608;2024-01-25T21:09:26;21.40;72.60
22416;DHT22;12204;50.600;4.608;2024-01-25T21:14:31;21.40;72.50
22416;DHT22;12204;50.600;4.608;2024-01-25T21:19:35;21.40;72.50
22416;DHT22;12204;50.600;4.608;2024-01-25T21:24:40;21.40;72.40
22416;DHT22;12204;50.600;4.608;2024-01-25T21:29:43;21.30;72.30
22416;DHT22;12204;50.600;4.608;2024-01-25T21:34:47;21.40;72.30
22416;DHT22;12204;50.600;4.608;2024-01-25T21:39:52;21.30;72.20
22416;DHT22;12204;50.600;4.608;2024-01-25T21:44:55;21.30;72.20
22416;DHT22;12204;50.600;4.608;2024-01-25T21:49:59;21.30;72.10
22416;DHT22;12204;50.600;4.608;2024-01-25T21:55:07;21.30;72.20
22416;DHT22;12204;50.600;4.608;2024-01-25T22:00:14;21.30;72.20
22416;DHT22;12204;50.600;4.608;2024-01-25T22:05:19;21.30;71.70
22416;DHT22;12204;50.600;4.608;2024-01-25T22:10:25;21.30;72.30
22416;DHT22;12204;50.600;4.608;2024-01-25T22:15:29;21.20;72.50
22416;DHT22;12204;50.600;4.608;2024-01-25T22:20:32;21.30;73.00
22416;DHT22;12204;50.600;4.608;2024-01-25T22:25:37;21.30;73.00
22416;DHT22;12204;50.600;4.608;2024-01-25T22:30:41;21.30;72.50
22416;DHT22;12204;50.600;4.608;2024-01-25T22:35:45;21.30;72.30
22416;DHT22;12204;50.600;4.608;2024-01-25T22:40:50;21.40;72.20
22416;DHT22;12204;50.600;4.608;2024-01-25T22:45:54;21.40;72.50
22416;DHT22;12204;50.600;4.608;2024-01-25T22:50:58;21.40;72.60
22416;DHT22;12204;50.600;4.608;2024-01-25T22:56:06;21.40;72.60
22416;DHT22;12204;50.600;4.608;2024-01-25T23:01:10;21.50;72.60
22416;DHT22;12204;50.600;4.608;2024-01-25T23:06:17;21.50;72.50
22416;DHT22;12204;50.600;4.608;2024-01-25T23:11:22;21.50;72.40
22416;DHT22;12204;50.600;4.608;2024-01-25T23:16:26;21.60;72.30
22416;DHT22;12204;50.600;4.608;2024-01-25T23:21:30;21.60;72.20
22416;DHT22;12204;50.600;4.608;2024-01-25T23:26:37;21.60;72.10
22416;DHT22;12204;50.600;4.608;2024-01-25T23:31:41;21.60;72.00
22416;DHT22;12204;50.600;4.608;2024-01-25T23:36:44;21.60;71.90
22416;DHT22;12204;50.600;4.608;2024-01-25T23:41:49;21.60;72.20
22416;DHT22;12204;50.600;4.608;2024-01-25T23:46:53;21.60;72.70
22416;DHT22;12204;50.600;4.608;2024-01-25T23:51:56;21.60;71.80
22416;DHT22;12204;50.600;4.608;2024-01-25T23:57:04;21.60;71.80
